sensor_id;sensor_type;location;lat;lon;timestamp;temperature;humidity
57564;DHT22;43400;45.926;6.724;2022-10-16T00:02:23;13.40;90.40
57564;DHT22;43400;45.926;6.724;2022-10-16T00:04:55;13.50;90.00
57564;DHT22;43400;45.926;6.724;2022-10-16T00:07:29;13.50;90.20
57564;DHT22;43400;45.926;6.724;2022-10-16T00:10:01;13.40;90.70
57564;DHT22;43400;45.926;6.724;2022-10-16T00:12:33;13.30;90.70
57564;DHT22;43400;45.926;6.724;2022-10-16T00:15:08;13.30;90.40
57564;DHT22;43400;45.926;6.724;2022-10-16T00:17:40;13.30;89.90
57564;DHT22;43400;45.926;6.724;2022-10-16T00:20:12;13.40;90.30
57564;DHT22;43400;45.926;6.724;2022-10-16T00:22:44;13.40;90.40
57564;DHT22;43400;45.926;6.724;2022-10-16T00:25:16;13.30;90.90
57564;DHT22;43400;45.926;6.724;2022-10-16T00:27:47;13.20;91.00
57564;DHT22;43400;45.926;6.724;2022-10-16T00:30:19;13.20;90.90
57564;DHT22;43400;45.926;6.724;2022-10-16T00:32:51;13.20;90.90
57564;DHT22;43400;45.926;6.724;2022-10-16T00:35:23;13.10;91.10
57564;DHT22;43400;45.926;6.724;2022-10-16T00:37:54;13.00;90.80
57564;DHT22;43400;45.926;6.724;2022-10-16T00:40:26;13.10;90.60
57564;DHT22;43400;45.926;6.724;2022-10-16T00:42:58;13.10;91.00
57564;DHT22;43400;45.926;6.724;2022-10-16T00:45:29;13.10;90.70
57564;DHT22;43400;45.926;6.724;2022-10-16T00:48:01;13.10;90.10
57564;DHT22;43400;45.926;6.724;2022-10-16T00:50:34;13.10;90.50
57564;DHT22;43400;45.926;6.724;2022-10-16T00:53:06;13.10;90.20
57564;DHT22;43400;45.926;6.724;2022-10-16T00:55:38;13.10;90.80
57564;DHT22;43400;45.926;6.724;2022-10-16T00:58:10;12.90;91.00
57564;DHT22;43400;45.926;6.724;2022-10-16T01:00:42;12.90;91.30
57564;DHT22;43400;45.926;6.724;2022-10-16T01:03:32;12.90;91.40
57564;DHT22;43400;45.926;6.724;2022-10-16T01:06:23;12.90;91.20
57564;DHT22;43400;45.926;6.724;2022-10-16T01:09:21;12.90;91.20
57564;DHT22;43400;45.926;6.724;2022-10-16T01:15:18;12.80;91.10
57564;DHT22;43400;45.926;6.724;2022-10-16T01:18:06;12.80;90.90
57564;DHT22;43400;45.926;6.724;2022-10-16T01:29:04;12.70;91.10
57564;DHT22;43400;45.926;6.724;2022-10-16T01:31:39;12.80;91.10
57564;DHT22;43400;45.926;6.724;2022-10-16T01:34:16;12.80;90.80
57564;DHT22;43400;45.926;6.724;2022-10-16T01:36:53;12.70;91.00
57564;DHT22;43400;45.926;6.724;2022-10-16T01:39:30;12.80;90.70
57564;DHT22;43400;45.926;6.724;2022-10-16T01:42:11;12.80;91.00
57564;DHT22;43400;45.926;6.724;2022-10-16T01:44:46;12.80;90.60
57564;DHT22;43400;45.926;6.724;2022-10-16T01:47:22;12.80;90.50
57564;DHT22;43400;45.926;6.724;2022-10-16T01:49:56;12.90;90.50
57564;DHT22;43400;45.926;6.724;2022-10-16T01:52:30;12.80;90.40
57564;DHT22;43400;45.926;6.724;2022-10-16T01:55:06;12.80;90.80
57564;DHT22;43400;45.926;6.724;2022-10-16T01:57:42;12.70;90.70
57564;DHT22;43400;45.926;6.724;2022-10-16T02:00:17;12.70;90.70
57564;DHT22;43400;45.926;6.724;2022-10-16T02:02:53;12.70;90.50
57564;DHT22;43400;45.926;6.724;2022-10-16T02:05:30;12.80;89.80
57564;DHT22;43400;45.926;6.724;2022-10-16T02:08:02;12.90;90.10
57564;DHT22;43400;45.926;6.724;2022-10-16T02:10:35;12.80;90.20
57564;DHT22;43400;45.926;6.724;2022-10-16T02:16:17;12.60;91.30
57564;DHT22;43400;45.926;6.724;2022-10-16T02:18:49;12.50;92.90
57564;DHT22;43400;45.926;6.724;2022-10-16T02:21:26;12.40;92.80
57564;DHT22;43400;45.926;6.724;2022-10-16T02:24:08;12.40;92.80
57564;DHT22;43400;45.926;6.724;2022-10-16T02:29:22;12.30;92.40
57564;DHT22;43400;45.926;6.724;2022-10-16T02:32:01;12.20;92.90
57564;DHT22;43400;45.926;6.724;2022-10-16T02:34:35;12.20;92.50
57564;DHT22;43400;45.926;6.724;2022-10-16T02:37:07;12.20;92.40
57564;DHT22;43400;45.926;6.724;2022-10-16T02:39:40;12.20;92.40
57564;DHT22;43400;45.926;6.724;2022-10-16T02:42:13;12.30;92.00
57564;DHT22;43400;45.926;6.724;2022-10-16T02:44:45;12.40;92.00
57564;DHT22;43400;45.926;6.724;2022-10-16T02:47:17;12.40;91.40
57564;DHT22;43400;45.926;6.724;2022-10-16T02:49:49;12.50;91.40
57564;DHT22;43400;45.926;6.724;2022-10-16T02:52:20;12.50;91.00
57564;DHT22;43400;45.926;6.724;2022-10-16T02:54:52;12.50;90.80
57564;DHT22;43400;45.926;6.724;2022-10-16T02:57:23;12.50;91.00
57564;DHT22;43400;45.926;6.724;2022-10-16T02:59:55;12.50;91.60
57564;DHT22;43400;45.926;6.724;2022-10-16T03:02:26;12.40;91.20
57564;DHT22;43400;45.926;6.724;2022-10-16T03:04:58;12.50;91.40
57564;DHT22;43400;45.926;6.724;2022-10-16T03:07:29;12.50;91.50
57564;DHT22;43400;45.926;6.724;2022-10-16T03:10:01;12.50;91.00
57564;DHT22;43400;45.926;6.724;2022-10-16T03:12:32;12.50;91.20
57564;DHT22;43400;45.926;6.724;2022-10-16T03:15:04;12.50;91.50
57564;DHT22;43400;45.926;6.724;2022-10-16T03:17:36;12.50;91.90
57564;DHT22;43400;45.926;6.724;2022-10-16T03:20:08;12.50;92.30
57564;DHT22;43400;45.926;6.724;2022-10-16T03:22:39;12.40;93.10
57564;DHT22;43400;45.926;6.724;2022-10-16T03:25:11;12.30;93.50
57564;DHT22;43400;45.926;6.724;2022-10-16T03:27:42;12.30;93.70
57564;DHT22;43400;45.926;6.724;2022-10-16T03:30:14;12.40;93.60
57564;DHT22;43400;45.926;6.724;2022-10-16T03:32:45;12.40;93.30
57564;DHT22;43400;45.926;6.724;2022-10-16T03:35:17;12.40;92.10
57564;DHT22;43400;45.926;6.724;2022-10-16T03:37:49;12.50;91.60
57564;DHT22;43400;45.926;6.724;2022-10-16T03:40:21;12.60;92.00
57564;DHT22;43400;45.926;6.724;2022-10-16T03:42:52;12.60;91.60
57564;DHT22;43400;45.926;6.724;2022-10-16T03:45:24;12.70;91.50
57564;DHT22;43400;45.926;6.724;2022-10-16T03:47:56;12.70;91.20
57564;DHT22;43400;45.926;6.724;2022-10-16T03:50:27;12.70;91.60
57564;DHT22;43400;45.926;6.724;2022-10-16T03:52:59;12.70;91.70
57564;DHT22;43400;45.926;6.724;2022-10-16T03:55:30;12.70;91.60
57564;DHT22;43400;45.926;6.724;2022-10-16T03:58:02;12.60;91.70
57564;DHT22;43400;45.926;6.724;2022-10-16T04:00:34;12.60;91.10
57564;DHT22;43400;45.926;6.724;2022-10-16T04:03:05;12.60;91.00
57564;DHT22;43400;45.926;6.724;2022-10-16T04:05:37;12.70;90.80
57564;DHT22;43400;45.926;6.724;2022-10-16T04:08:09;12.60;90.80
57564;DHT22;43400;45.926;6.724;2022-10-16T04:10:42;12.70;90.50
57564;DHT22;43400;45.926;6.724;2022-10-16T04:13:14;12.60;90.40
57564;DHT22;43400;45.926;6.724;2022-10-16T04:15:46;12.60;90.10
57564;DHT22;43400;45.926;6.724;2022-10-16T04:18:18;12.50;90.50
57564;DHT22;43400;45.926;6.724;2022-10-16T04:20:49;12.40;91.70
57564;DHT22;43400;45.926;6.724;2022-10-16T04:23:21;12.30;91.50
57564;DHT22;43400;45.926;6.724;2022-10-16T04:25:53;12.20;91.70
57564;DHT22;43400;45.926;6.724;2022-10-16T04:28:25;12.20;92.10
57564;DHT22;43400;45.926;6.724;2022-10-16T04:30:56;12.10;92.30
57564;DHT22;43400;45.926;6.724;2022-10-16T04:33:28;12.00;93.50
57564;DHT22;43400;45.926;6.724;2022-10-16T04:36:00;11.90;93.10
57564;DHT22;43400;45.926;6.724;2022-10-16T04:38:32;11.90;92.90
57564;DHT22;43400;45.926;6.724;2022-10-16T04:41:04;11.90;93.60
57564;DHT22;43400;45.926;6.724;2022-10-16T04:43:36;11.80;94.00
57564;DHT22;43400;45.926;6.724;2022-10-16T04:46:07;11.80;94.20
57564;DHT22;43400;45.926;6.724;2022-10-16T04:48:39;11.80;94.40
57564;DHT22;43400;45.926;6.724;2022-10-16T04:51:10;11.70;94.30
57564;DHT22;43400;45.926;6.724;2022-10-16T04:53:42;11.70;94.00
57564;DHT22;43400;45.926;6.724;2022-10-16T04:56:13;11.60;94.00
57564;DHT22;43400;45.926;6.724;2022-10-16T04:58:45;11.60;94.00
57564;DHT22;43400;45.926;6.724;2022-10-16T05:01:16;11.60;94.10
57564;DHT22;43400;45.926;6.724;2022-10-16T05:03:48;11.60;93.60
57564;DHT22;43400;45.926;6.724;2022-10-16T05:06:20;11.70;93.20
57564;DHT22;43400;45.926;6.724;2022-10-16T05:08:51;11.70;92.80
57564;DHT22;43400;45.926;6.724;2022-10-16T05:11:23;11.70;93.00
57564;DHT22;43400;45.926;6.724;2022-10-16T05:13:54;11.70;92.40
57564;DHT22;43400;45.926;6.724;2022-10-16T05:16:26;11.80;91.90
57564;DHT22;43400;45.926;6.724;2022-10-16T05:18:58;11.80;92.00
57564;DHT22;43400;45.926;6.724;2022-10-16T05:21:29;11.80;91.90
57564;DHT22;43400;45.926;6.724;2022-10-16T05:24:01;11.80;91.90
57564;DHT22;43400;45.926;6.724;2022-10-16T05:26:33;11.80;91.90
57564;DHT22;43400;45.926;6.724;2022-10-16T05:29:04;11.80;91.70
57564;DHT22;43400;45.926;6.724;2022-10-16T05:31:36;11.80;91.40
57564;DHT22;43400;45.926;6.724;2022-10-16T05:34:08;11.80;91.70
57564;DHT22;43400;45.926;6.724;2022-10-16T05:36:39;11.80;92.00
57564;DHT22;43400;45.926;6.724;2022-10-16T05:39:11;11.70;92.40
57564;DHT22;43400;45.926;6.724;2022-10-16T05:41:44;11.60;93.10
57564;DHT22;43400;45.926;6.724;2022-10-16T05:44:16;11.60;93.20
57564;DHT22;43400;45.926;6.724;2022-10-16T05:46:48;11.60;93.30
57564;DHT22;43400;45.926;6.724;2022-10-16T05:49:19;11.60;93.80
57564;DHT22;43400;45.926;6.724;2022-10-16T05:51:51;11.60;93.70
57564;DHT22;43400;45.926;6.724;2022-10-16T05:54:22;11.60;94.30
57564;DHT22;43400;45.926;6.724;2022-10-16T05:56:54;11.60;94.90
57564;DHT22;43400;45.926;6.724;2022-10-16T05:59:25;11.60;94.70
57564;DHT22;43400;45.926;6.724;2022-10-16T06:01:57;11.70;95.40
57564;DHT22;43400;45.926;6.724;2022-10-16T06:04:28;11.70;94.10
57564;DHT22;43400;45.926;6.724;2022-10-16T06:07:00;11.80;93.40
57564;DHT22;43400;45.926;6.724;2022-10-16T06:09:32;11.90;93.80
57564;DHT22;43400;45.926;6.724;2022-10-16T06:12:03;11.90;93.50
57564;DHT22;43400;45.926;6.724;2022-10-16T06:14:35;12.00;93.20
57564;DHT22;43400;45.926;6.724;2022-10-16T06:17:06;12.00;91.40
57564;DHT22;43400;45.926;6.724;2022-10-16T06:19:38;12.40;90.30
57564;DHT22;43400;45.926;6.724;2022-10-16T06:22:10;12.40;90.30
57564;DHT22;43400;45.926;6.724;2022-10-16T06:24:41;12.50;90.10
57564;DHT22;43400;45.926;6.724;2022-10-16T06:27:13;12.60;89.50
57564;DHT22;43400;45.926;6.724;2022-10-16T06:29:45;12.60;89.20
57564;DHT22;43400;45.926;6.724;2022-10-16T06:32:16;12.70;90.10
57564;DHT22;43400;45.926;6.724;2022-10-16T06:34:48;12.70;90.70
57564;DHT22;43400;45.926;6.724;2022-10-16T06:37:20;12.70;91.00
57564;DHT22;43400;45.926;6.724;2022-10-16T06:39:51;12.60;90.60
57564;DHT22;43400;45.926;6.724;2022-10-16T06:42:23;12.60;90.20
57564;DHT22;43400;45.926;6.724;2022-10-16T06:44:54;12.70;90.40
57564;DHT22;43400;45.926;6.724;2022-10-16T06:47:26;12.70;90.30
57564;DHT22;43400;45.926;6.724;2022-10-16T06:49:58;12.60;90.60
57564;DHT22;43400;45.926;6.724;2022-10-16T06:52:29;12.60;91.30
57564;DHT22;43400;45.926;6.724;2022-10-16T06:55:01;12.60;91.30
57564;DHT22;43400;45.926;6.724;2022-10-16T06:57:32;12.60;91.10
57564;DHT22;43400;45.926;6.724;2022-10-16T07:00:04;12.60;91.50
57564;DHT22;43400;45.926;6.724;2022-10-16T07:02:36;12.60;91.30
57564;DHT22;43400;45.926;6.724;2022-10-16T07:05:08;12.60;91.00
57564;DHT22;43400;45.926;6.724;2022-10-16T07:07:39;12.60;90.70
57564;DHT22;43400;45.926;6.724;2022-10-16T07:10:10;12.60;89.70
57564;DHT22;43400;45.926;6.724;2022-10-16T07:12:42;12.60;89.80
57564;DHT22;43400;45.926;6.724;2022-10-16T07:15:13;12.60;90.40
57564;DHT22;43400;45.926;6.724;2022-10-16T07:17:45;12.50;90.60
57564;DHT22;43400;45.926;6.724;2022-10-16T07:20:17;12.50;91.60
57564;DHT22;43400;45.926;6.724;2022-10-16T07:22:48;12.40;92.10
57564;DHT22;43400;45.926;6.724;2022-10-16T07:25:20;12.40;91.50
57564;DHT22;43400;45.926;6.724;2022-10-16T07:27:52;12.50;91.40
57564;DHT22;43400;45.926;6.724;2022-10-16T07:30:23;12.50;91.30
57564;DHT22;43400;45.926;6.724;2022-10-16T07:32:55;12.50;91.40
57564;DHT22;43400;45.926;6.724;2022-10-16T07:35:27;12.40;92.00
57564;DHT22;43400;45.926;6.724;2022-10-16T07:37:58;12.40;92.90
57564;DHT22;43400;45.926;6.724;2022-10-16T07:40:30;12.40;93.40
57564;DHT22;43400;45.926;6.724;2022-10-16T07:43:02;12.40;93.30
57564;DHT22;43400;45.926;6.724;2022-10-16T07:45:33;12.50;93.40
57564;DHT22;43400;45.926;6.724;2022-10-16T07:48:04;12.40;93.20
57564;DHT22;43400;45.926;6.724;2022-10-16T07:50:36;12.30;93.50
57564;DHT22;43400;45.926;6.724;2022-10-16T07:53:07;12.30;93.90
57564;DHT22;43400;45.926;6.724;2022-10-16T07:55:39;12.30;93.70
57564;DHT22;43400;45.926;6.724;2022-10-16T07:58:11;12.40;93.60
57564;DHT22;43400;45.926;6.724;2022-10-16T08:00:43;12.30;93.60
57564;DHT22;43400;45.926;6.724;2022-10-16T08:03:14;12.30;93.70
57564;DHT22;43400;45.926;6.724;2022-10-16T08:05:46;12.30;93.50
57564;DHT22;43400;45.926;6.724;2022-10-16T08:08:18;12.20;94.20
57564;DHT22;43400;45.926;6.724;2022-10-16T08:10:50;12.20;94.70
57564;DHT22;43400;45.926;6.724;2022-10-16T08:13:21;12.20;95.00
57564;DHT22;43400;45.926;6.724;2022-10-16T08:15:54;12.30;94.80
57564;DHT22;43400;45.926;6.724;2022-10-16T08:18:25;12.30;94.80
57564;DHT22;43400;45.926;6.724;2022-10-16T08:20:58;12.40;94.30
57564;DHT22;43400;45.926;6.724;2022-10-16T08:23:30;12.40;93.80
57564;DHT22;43400;45.926;6.724;2022-10-16T08:26:05;12.40;94.10
57564;DHT22;43400;45.926;6.724;2022-10-16T08:28:37;12.40;93.80
57564;DHT22;43400;45.926;6.724;2022-10-16T08:31:14;12.50;94.00
57564;DHT22;43400;45.926;6.724;2022-10-16T08:33:46;12.50;94.80
57564;DHT22;43400;45.926;6.724;2022-10-16T08:36:17;12.40;94.60
57564;DHT22;43400;45.926;6.724;2022-10-16T08:38:50;12.40;95.00
57564;DHT22;43400;45.926;6.724;2022-10-16T08:41:28;12.40;94.80
57564;DHT22;43400;45.926;6.724;2022-10-16T08:47:39;12.40;95.00
57564;DHT22;43400;45.926;6.724;2022-10-16T08:50:22;12.50;94.90
57564;DHT22;43400;45.926;6.724;2022-10-16T08:52:55;12.50;94.70
57564;DHT22;43400;45.926;6.724;2022-10-16T08:55:50;12.50;95.00
57564;DHT22;43400;45.926;6.724;2022-10-16T08:58:26;12.60;94.90
57564;DHT22;43400;45.926;6.724;2022-10-16T09:01:04;12.60;95.20
57564;DHT22;43400;45.926;6.724;2022-10-16T09:15:10;14.40;94.80
57564;DHT22;43400;45.926;6.724;2022-10-16T09:18:01;14.90;91.50
57564;DHT22;43400;45.926;6.724;2022-10-16T09:20:39;15.30;92.00
57564;DHT22;43400;45.926;6.724;2022-10-16T09:23:28;15.70;93.00
57564;DHT22;43400;45.926;6.724;2022-10-16T09:25:59;16.10;91.20
57564;DHT22;43400;45.926;6.724;2022-10-16T09:28:31;16.30;88.50
57564;DHT22;43400;45.926;6.724;2022-10-16T09:31:03;16.40;86.70
57564;DHT22;43400;45.926;6.724;2022-10-16T09:33:39;16.60;87.80
57564;DHT22;43400;45.926;6.724;2022-10-16T09:36:13;16.70;87.50
57564;DHT22;43400;45.926;6.724;2022-10-16T09:38:44;17.00;87.10
57564;DHT22;43400;45.926;6.724;2022-10-16T09:41:22;17.20;85.70
57564;DHT22;43400;45.926;6.724;2022-10-16T09:43:57;17.30;84.40
57564;DHT22;43400;45.926;6.724;2022-10-16T09:46:35;17.60;83.50
57564;DHT22;43400;45.926;6.724;2022-10-16T09:49:24;17.90;83.70
57564;DHT22;43400;45.926;6.724;2022-10-16T09:52:04;18.30;79.90
57564;DHT22;43400;45.926;6.724;2022-10-16T09:54:36;18.50;81.10
57564;DHT22;43400;45.926;6.724;2022-10-16T09:57:12;18.80;80.00
57564;DHT22;43400;45.926;6.724;2022-10-16T09:59:52;19.10;73.30
57564;DHT22;43400;45.926;6.724;2022-10-16T10:02:34;19.30;66.70
57564;DHT22;43400;45.926;6.724;2022-10-16T10:05:35;19.40;62.90
57564;DHT22;43400;45.926;6.724;2022-10-16T10:08:16;19.60;64.10
57564;DHT22;43400;45.926;6.724;2022-10-16T10:10:49;19.90;67.70
57564;DHT22;43400;45.926;6.724;2022-10-16T10:13:22;20.20;65.50
57564;DHT22;43400;45.926;6.724;2022-10-16T10:15:55;20.30;63.80
57564;DHT22;43400;45.926;6.724;2022-10-16T10:18:27;20.50;65.40
57564;DHT22;43400;45.926;6.724;2022-10-16T10:21:02;20.80;65.50
57564;DHT22;43400;45.926;6.724;2022-10-16T10:23:34;21.00;67.70
57564;DHT22;43400;45.926;6.724;2022-10-16T10:26:18;21.40;67.50
57564;DHT22;43400;45.926;6.724;2022-10-16T10:29:23;22.10;61.70
57564;DHT22;43400;45.926;6.724;2022-10-16T10:37:28;27.30;51.20
57564;DHT22;43400;45.926;6.724;2022-10-16T10:40:22;28.50;47.70
57564;DHT22;43400;45.926;6.724;2022-10-16T10:43:04;29.30;46.50
57564;DHT22;43400;45.926;6.724;2022-10-16T10:45:44;29.80;44.90
57564;DHT22;43400;45.926;6.724;2022-10-16T10:50:50;30.30;46.10
57564;DHT22;43400;45.926;6.724;2022-10-16T10:56:58;30.20;43.10
57564;DHT22;43400;45.926;6.724;2022-10-16T11:08:02;34.10;39.20
57564;DHT22;43400;45.926;6.724;2022-10-16T11:10:47;35.10;38.60
57564;DHT22;43400;45.926;6.724;2022-10-16T11:13:46;34.90;38.00
57564;DHT22;43400;45.926;6.724;2022-10-16T11:16:29;35.10;38.00
57564;DHT22;43400;45.926;6.724;2022-10-16T11:19:21;35.80;39.10
57564;DHT22;43400;45.926;6.724;2022-10-16T11:30:49;37.00;33.50
57564;DHT22;43400;45.926;6.724;2022-10-16T11:33:27;36.70;35.20
57564;DHT22;43400;45.926;6.724;2022-10-16T11:41:35;36.10;35.30
57564;DHT22;43400;45.926;6.724;2022-10-16T11:47:33;37.50;34.80
57564;DHT22;43400;45.926;6.724;2022-10-16T11:55:40;37.40;32.90
57564;DHT22;43400;45.926;6.724;2022-10-16T11:58:31;37.40;33.40
57564;DHT22;43400;45.926;6.724;2022-10-16T12:01:17;37.30;32.90
57564;DHT22;43400;45.926;6.724;2022-10-16T12:07:07;37.30;32.10
57564;DHT22;43400;45.926;6.724;2022-10-16T12:09:41;36.60;32.10
57564;DHT22;43400;45.926;6.724;2022-10-16T12:15:22;35.80;34.10
57564;DHT22;43400;45.926;6.724;2022-10-16T12:17:55;36.80;34.90
57564;DHT22;43400;45.926;6.724;2022-10-16T12:20:31;37.40;32.50
57564;DHT22;43400;45.926;6.724;2022-10-16T12:23:05;36.90;33.10
57564;DHT22;43400;45.926;6.724;2022-10-16T12:25:41;37.00;33.50
57564;DHT22;43400;45.926;6.724;2022-10-16T12:30:56;36.30;33.80
57564;DHT22;43400;45.926;6.724;2022-10-16T12:33:39;36.40;34.80
57564;DHT22;43400;45.926;6.724;2022-10-16T12:36:26;36.60;36.00
57564;DHT22;43400;45.926;6.724;2022-10-16T12:38:59;35.90;33.30
57564;DHT22;43400;45.926;6.724;2022-10-16T12:41:35;35.60;33.20
57564;DHT22;43400;45.926;6.724;2022-10-16T12:44:23;35.60;34.00
57564;DHT22;43400;45.926;6.724;2022-10-16T12:46:55;35.40;34.30
57564;DHT22;43400;45.926;6.724;2022-10-16T12:49:37;35.70;35.00
57564;DHT22;43400;45.926;6.724;2022-10-16T12:55:16;34.40;34.70
57564;DHT22;43400;45.926;6.724;2022-10-16T13:00:45;33.20;36.50
57564;DHT22;43400;45.926;6.724;2022-10-16T13:06:17;33.20;36.10
57564;DHT22;43400;45.926;6.724;2022-10-16T13:08:58;33.30;36.40
57564;DHT22;43400;45.926;6.724;2022-10-16T13:17:49;33.20;36.20
57564;DHT22;43400;45.926;6.724;2022-10-16T13:23:18;32.30;36.80
57564;DHT22;43400;45.926;6.724;2022-10-16T13:28:29;32.50;37.80
57564;DHT22;43400;45.926;6.724;2022-10-16T13:31:04;32.50;37.20
57564;DHT22;43400;45.926;6.724;2022-10-16T13:33:39;33.00;36.70
57564;DHT22;43400;45.926;6.724;2022-10-16T13:36:22;33.00;36.90
57564;DHT22;43400;45.926;6.724;2022-10-16T13:42:23;33.30;36.10
57564;DHT22;43400;45.926;6.724;2022-10-16T13:44:54;33.80;36.50
57564;DHT22;43400;45.926;6.724;2022-10-16T13:47:28;34.10;36.80
57564;DHT22;43400;45.926;6.724;2022-10-16T13:50:04;34.10;36.20
57564;DHT22;43400;45.926;6.724;2022-10-16T13:52:36;34.70;36.70
57564;DHT22;43400;45.926;6.724;2022-10-16T13:55:16;34.60;37.60
57564;DHT22;43400;45.926;6.724;2022-10-16T13:57:47;34.30;36.00
57564;DHT22;43400;45.926;6.724;2022-10-16T14:00:25;34.20;36.30
57564;DHT22;43400;45.926;6.724;2022-10-16T14:03:11;33.60;36.60
57564;DHT22;43400;45.926;6.724;2022-10-16T14:08:25;33.80;36.60
57564;DHT22;43400;45.926;6.724;2022-10-16T14:10:59;34.00;36.50
57564;DHT22;43400;45.926;6.724;2022-10-16T14:13:58;33.60;36.20
57564;DHT22;43400;45.926;6.724;2022-10-16T14:16:31;33.60;36.90
57564;DHT22;43400;45.926;6.724;2022-10-16T14:19:05;33.10;38.20
57564;DHT22;43400;45.926;6.724;2022-10-16T14:21:37;32.00;37.90
57564;DHT22;43400;45.926;6.724;2022-10-16T14:27:28;31.40;38.90
57564;DHT22;43400;45.926;6.724;2022-10-16T14:30:18;31.20;39.30
57564;DHT22;43400;45.926;6.724;2022-10-16T14:33:05;30.40;40.20
57564;DHT22;43400;45.926;6.724;2022-10-16T14:35:39;29.70;41.30
57564;DHT22;43400;45.926;6.724;2022-10-16T14:38:19;29.20;42.00
57564;DHT22;43400;45.926;6.724;2022-10-16T14:40:51;28.80;43.30
57564;DHT22;43400;45.926;6.724;2022-10-16T14:46:16;29.10;43.10
57564;DHT22;43400;45.926;6.724;2022-10-16T14:49:16;29.00;42.60
57564;DHT22;43400;45.926;6.724;2022-10-16T14:51:47;28.70;43.30
57564;DHT22;43400;45.926;6.724;2022-10-16T14:54:18;29.30;43.50
57564;DHT22;43400;45.926;6.724;2022-10-16T14:59:39;29.30;42.20
57564;DHT22;43400;45.926;6.724;2022-10-16T15:04:52;29.80;42.90
57564;DHT22;43400;45.926;6.724;2022-10-16T15:07:24;29.80;43.30
57564;DHT22;43400;45.926;6.724;2022-10-16T15:09:55;30.30;45.10
57564;DHT22;43400;45.926;6.724;2022-10-16T15:12:27;30.60;41.60
57564;DHT22;43400;45.926;6.724;2022-10-16T15:14:58;30.00;43.20
57564;DHT22;43400;45.926;6.724;2022-10-16T15:17:30;29.70;42.50
57564;DHT22;43400;45.926;6.724;2022-10-16T15:20:02;30.30;44.40
57564;DHT22;43400;45.926;6.724;2022-10-16T15:22:33;31.00;43.40
57564;DHT22;43400;45.926;6.724;2022-10-16T15:28:05;31.40;40.80
57564;DHT22;43400;45.926;6.724;2022-10-16T15:30:38;31.20;42.40
57564;DHT22;43400;45.926;6.724;2022-10-16T15:33:13;30.90;41.70
57564;DHT22;43400;45.926;6.724;2022-10-16T15:35:52;30.40;42.70
57564;DHT22;43400;45.926;6.724;2022-10-16T15:38:24;29.70;43.30
57564;DHT22;43400;45.926;6.724;2022-10-16T15:40:56;29.00;46.10
57564;DHT22;43400;45.926;6.724;2022-10-16T15:43:28;28.20;45.10
57564;DHT22;43400;45.926;6.724;2022-10-16T15:46:03;28.20;47.40
57564;DHT22;43400;45.926;6.724;2022-10-16T15:48:34;27.70;49.00
57564;DHT22;43400;45.926;6.724;2022-10-16T15:51:07;27.30;51.40
57564;DHT22;43400;45.926;6.724;2022-10-16T15:53:39;26.90;52.80
57564;DHT22;43400;45.926;6.724;2022-10-16T15:56:10;26.40;52.60
57564;DHT22;43400;45.926;6.724;2022-10-16T15:58:42;25.90;52.00
57564;DHT22;43400;45.926;6.724;2022-10-16T16:01:14;25.80;55.30
57564;DHT22;43400;45.926;6.724;2022-10-16T16:03:46;25.80;54.30
57564;DHT22;43400;45.926;6.724;2022-10-16T16:06:18;25.50;54.70
57564;DHT22;43400;45.926;6.724;2022-10-16T16:08:50;25.10;55.70
57564;DHT22;43400;45.926;6.724;2022-10-16T16:11:22;24.80;54.60
57564;DHT22;43400;45.926;6.724;2022-10-16T16:13:53;24.40;55.20
57564;DHT22;43400;45.926;6.724;2022-10-16T16:16:25;23.90;58.20
57564;DHT22;43400;45.926;6.724;2022-10-16T16:18:57;23.50;58.80
57564;DHT22;43400;45.926;6.724;2022-10-16T16:21:28;23.00;60.10
57564;DHT22;43400;45.926;6.724;2022-10-16T16:24:00;22.90;61.00
57564;DHT22;43400;45.926;6.724;2022-10-16T16:26:32;22.60;63.20
57564;DHT22;43400;45.926;6.724;2022-10-16T16:29:03;22.50;62.80
57564;DHT22;43400;45.926;6.724;2022-10-16T16:31:36;22.20;65.00
57564;DHT22;43400;45.926;6.724;2022-10-16T16:34:08;21.90;66.20
57564;DHT22;43400;45.926;6.724;2022-10-16T16:36:39;21.70;66.00
57564;DHT22;43400;45.926;6.724;2022-10-16T16:39:11;21.50;66.70
57564;DHT22;43400;45.926;6.724;2022-10-16T16:41:43;21.00;67.60
57564;DHT22;43400;45.926;6.724;2022-10-16T16:44:15;20.80;69.00
57564;DHT22;43400;45.926;6.724;2022-10-16T16:46:47;20.60;69.30
57564;DHT22;43400;45.926;6.724;2022-10-16T16:49:18;20.40;69.60
57564;DHT22;43400;45.926;6.724;2022-10-16T16:51:51;20.40;70.40
57564;DHT22;43400;45.926;6.724;2022-10-16T16:54:23;20.20;70.50
57564;DHT22;43400;45.926;6.724;2022-10-16T16:56:55;19.90;70.50
57564;DHT22;43400;45.926;6.724;2022-10-16T16:59:26;19.80;70.40
57564;DHT22;43400;45.926;6.724;2022-10-16T17:02:03;19.90;70.90
57564;DHT22;43400;45.926;6.724;2022-10-16T17:04:34;19.80;72.20
57564;DHT22;43400;45.926;6.724;2022-10-16T17:07:06;19.50;73.40
57564;DHT22;43400;45.926;6.724;2022-10-16T17:09:38;19.30;74.20
57564;DHT22;43400;45.926;6.724;2022-10-16T17:12:09;19.10;75.10
57564;DHT22;43400;45.926;6.724;2022-10-16T17:14:41;18.80;76.00
57564;DHT22;43400;45.926;6.724;2022-10-16T17:17:13;18.80;76.20
57564;DHT22;43400;45.926;6.724;2022-10-16T17:19:44;18.80;76.20
57564;DHT22;43400;45.926;6.724;2022-10-16T17:22:16;18.70;75.70
57564;DHT22;43400;45.926;6.724;2022-10-16T17:24:48;18.70;75.20
57564;DHT22;43400;45.926;6.724;2022-10-16T17:27:20;18.80;75.20
57564;DHT22;43400;45.926;6.724;2022-10-16T17:29:51;18.70;75.80
57564;DHT22;43400;45.926;6.724;2022-10-16T17:32:23;18.60;74.40
57564;DHT22;43400;45.926;6.724;2022-10-16T17:34:54;18.60;75.40
57564;DHT22;43400;45.926;6.724;2022-10-16T17:37:26;18.40;77.00
57564;DHT22;43400;45.926;6.724;2022-10-16T17:39:57;18.20;77.30
57564;DHT22;43400;45.926;6.724;2022-10-16T17:42:29;18.30;76.40
57564;DHT22;43400;45.926;6.724;2022-10-16T17:45:00;18.30;77.80
57564;DHT22;43400;45.926;6.724;2022-10-16T17:47:32;18.00;78.60
57564;DHT22;43400;45.926;6.724;2022-10-16T17:50:04;17.90;78.70
57564;DHT22;43400;45.926;6.724;2022-10-16T17:52:35;17.90;78.60
57564;DHT22;43400;45.926;6.724;2022-10-16T17:55:07;17.80;78.60
57564;DHT22;43400;45.926;6.724;2022-10-16T17:57:38;17.80;78.20
57564;DHT22;43400;45.926;6.724;2022-10-16T18:00:11;17.90;79.20
57564;DHT22;43400;45.926;6.724;2022-10-16T18:02:42;17.80;78.20
57564;DHT22;43400;45.926;6.724;2022-10-16T18:05:14;17.70;78.70
57564;DHT22;43400;45.926;6.724;2022-10-16T18:07:45;17.60;79.70
57564;DHT22;43400;45.926;6.724;2022-10-16T18:10:17;17.50;79.90
57564;DHT22;43400;45.926;6.724;2022-10-16T18:12:48;17.30;82.30
57564;DHT22;43400;45.926;6.724;2022-10-16T18:15:20;17.30;82.50
57564;DHT22;43400;45.926;6.724;2022-10-16T18:17:52;17.30;81.00
57564;DHT22;43400;45.926;6.724;2022-10-16T18:20:23;17.40;81.90